METAR AND TAF INFORMATION
METAR FOR KVCV
ADDS - METARS form results

(1031 UTC 30 January 2023)
Data provider http://aviationweather.gov/metar/data/
 
METAR text: KVCV 301015Z AUTO 16006KT 10SM FEW049 BKN075 OVC090 03/00 A2990 RMK AO2
Conditions at: KVCV (VICTORVILLE , CA, US) observed 1015 UTC 30 January 2023
Temperature: 3.0°C (37°F)
Dewpoint: 0.0°C (32°F) [RH = 81%]
Pressure (altimeter): 29.90 inches Hg (1012.6 mb)
Winds: from the SSE (160 degrees) at 7 MPH (6 knots; 3.1 m/s)
Visibility: 10 or more miles (16+ km)
Ceiling: 7500 feet AGL
Clouds: few clouds at 4900 feet AGL
broken clouds at 7500 feet AGL
overcast cloud deck at 9000 feet AGL
Weather: automated observation with no human augmentation;
there may or may not be significant weather present at this time

METAR text: KVCV 300955Z AUTO 16008KT 10SM FEW049 BKN070 OVC085 03/00 A2990 RMK AO2
Conditions at: KVCV (VICTORVILLE , CA, US) observed 0955 UTC 30 January 2023
Temperature: 3.0°C (37°F)
Dewpoint: 0.0°C (32°F) [RH = 81%]
Pressure (altimeter): 29.90 inches Hg (1012.6 mb)
Winds: from the SSE (160 degrees) at 9 MPH (8 knots; 4.1 m/s)
Visibility: 10 or more miles (16+ km)
Ceiling: 7000 feet AGL
Clouds: few clouds at 4900 feet AGL
broken clouds at 7000 feet AGL
overcast cloud deck at 8500 feet AGL
Weather: automated observation with no human augmentation;
there may or may not be significant weather present at this time

METAR text: KVCV 300935Z AUTO 15005KT 10SM BKN075 OVC085 04/01 A2990 RMK AO2
Conditions at: KVCV (VICTORVILLE , CA, US) observed 0935 UTC 30 January 2023
Temperature: 4.0°C (39°F)
Dewpoint: 1.0°C (34°F) [RH = 81%]
Pressure (altimeter): 29.90 inches Hg (1012.6 mb)
Winds: from the SSE (150 degrees) at 6 MPH (5 knots; 2.6 m/s)
Visibility: 10 or more miles (16+ km)
Ceiling: 7500 feet AGL
Clouds: broken clouds at 7500 feet AGL
overcast cloud deck at 8500 feet AGL
Weather: automated observation with no human augmentation;
there may or may not be significant weather present at this time

 AIRPORT MAP

 RUNWAY INFORMATION
Runway 03 Runway length 9138 ft Runway width 150 ft
Runway elevation 2878 ft Runway displaced threshold 0 ft Runway heading 45
Runway 21 Runway length 9138 ft Runway width 150 ft
Runway elevation 2844 ft Runway displaced threshold 0 ft Runway heading 225
Runway 17 Runway length 15050 ft Runway width 150 ft
Runway elevation 2828 ft Runway displaced threshold 4000 ft Runway heading 180
Runway 35 Runway length 15050 ft Runway width 150 ft
Runway elevation 2885 ft Runway displaced threshold 0 ft Runway heading 360

 AIRPORT FREQUENCIES
Type A/D Name JOSHUA APP Frequency 124.55 MHZ
Type AWOS Name AWOS 3 Frequency 109.4 MHZ
Type GND Name GND Frequency 124.45 MHZ
Type TWR Name VICTORVILL Frequency 118.35 MHZ

 AIRPORT NEAR NAVIGATION AIDS

-